Time;durP1;ratioP1;P1;durP2;ratioP2;P2;SDS_P1;SDS_P2;PMS_P1;PMS_P2;Temp;Humidity;BMP_temperature;BMP_pressure;BME280_temperature;BME280_humidity;BME280_pressure;Samples;Min_cycle;Max_cycle;Signal;HPM_P1;HPM_P2
2022/10/01 00:01:03;;;;;;;10.98;7.03;;;13.10;99.90;;;;;;5023280;28;20029;-71
2022/10/01 00:03:30;;;;;;;8.27;6.72;;;13.10;99.90;;;;;;5027163;28;20029;-72
2022/10/01 00:06:12;;;;;;;9.05;7.30;;;13.00;99.90;;;;;;5024260;28;20053;-71
2022/10/01 00:08:39;;;;;;;9.52;6.50;;;13.00;99.90;;;;;;5028107;28;20367;-71
2022/10/01 00:11:21;;;;;;;6.95;6.25;;;13.00;99.90;;;;;;5022197;28;20079;-71
2022/10/01 00:13:47;;;;;;;8.75;6.53;;;12.90;99.90;;;;;;5031049;28;20506;-71
2022/10/01 00:16:17;;;;;;;6.97;6.28;;;12.90;99.90;;;;;;5034555;28;20497;-71
2022/10/01 00:18:44;;;;;;;7.60;6.20;;;12.80;99.90;;;;;;5031408;28;20115;-71
2022/10/01 00:21:15;;;;;;;7.75;6.18;;;12.80;99.90;;;;;;5032139;28;20079;-71
2022/10/01 00:23:41;;;;;;;7.05;5.97;;;12.70;99.90;;;;;;5024557;28;20489;-71
2022/10/01 00:26:12;;;;;;;10.93;7.32;;;12.80;99.90;;;;;;5025027;28;20123;-71
2022/10/01 00:28:38;;;;;;;9.13;7.28;;;12.70;99.90;;;;;;5024323;28;20067;-71
2022/10/01 00:31:08;;;;;;;7.68;6.00;;;12.70;99.90;;;;;;5024939;28;20028;-71
2022/10/01 00:33:35;;;;;;;9.10;7.30;;;12.70;99.90;;;;;;5031382;28;20037;-71
2022/10/01 00:36:02;;;;;;;7.78;7.00;;;12.70;99.90;;;;;;5036316;28;20036;-70
2022/10/01 00:38:28;;;;;;;8.23;6.47;;;12.60;99.90;;;;;;5031369;28;20048;-70
2022/10/01 00:40:54;;;;;;;7.45;6.60;;;12.60;99.90;;;;;;5021954;28;20039;-71
2022/10/01 00:43:36;;;;;;;7.78;6.43;;;12.70;99.90;;;;;;5024870;28;20029;-70
2022/10/01 00:46:08;;;;;;;7.82;5.75;;;12.70;99.90;;;;;;5030058;28;20041;-71
2022/10/01 00:48:42;;;;;;;9.25;6.80;;;12.70;99.90;;;;;;5015402;28;20032;-71
2022/10/01 00:51:08;;;;;;;8.23;7.43;;;12.70;99.90;;;;;;5023577;28;20513;-71
2022/10/01 00:53:34;;;;;;;7.22;6.53;;;12.70;99.90;;;;;;5027776;28;20045;-70
2022/10/01 00:55:59;;;;;;;7.10;6.15;;;12.70;99.90;;;;;;5020183;28;20034;-70
2022/10/01 00:58:26;;;;;;;10.60;6.80;;;12.70;99.90;;;;;;5024611;28;20055;-71
2022/10/01 01:00:55;;;;;;;8.80;6.40;;;12.70;99.90;;;;;;5021519;28;20048;-71
2022/10/01 01:03:21;;;;;;;6.57;5.80;;;12.70;99.90;;;;;;5026689;28;20014;-70
2022/10/01 01:05:49;;;;;;;8.88;6.40;;;12.70;99.90;;;;;;5021025;28;20037;-70
2022/10/01 01:08:15;;;;;;;8.93;6.00;;;12.80;99.90;;;;;;5025787;28;20025;-70
2022/10/01 01:11:00;;;;;;;7.15;6.25;;;12.70;99.90;;;;;;5027539;28;20041;-71
2022/10/01 01:13:33;;;;;;;5.82;5.20;;;12.80;99.90;;;;;;5027708;28;20037;-71
2022/10/01 01:16:10;;;;;;;9.20;6.10;;;12.80;99.90;;;;;;5026424;28;20037;-70
2022/10/01 01:19:00;;;;;;;9.38;5.43;;;12.80;99.90;;;;;;5023474;28;20068;-71
2022/10/01 01:21:31;;;;;;;7.47;5.50;;;12.80;99.90;;;;;;5021822;28;20120;-71
2022/10/01 01:24:21;;;;;;;7.00;6.30;;;12.90;99.90;;;;;;5025380;28;20028;-72
2022/10/01 01:26:48;;;;;;;11.57;6.82;;;12.90;99.90;;;;;;5021761;28;20059;-71
2022/10/01 01:29:41;;;;;;;9.95;6.50;;;12.90;99.90;;;;;;5020059;28;20137;-72
2022/10/01 01:32:13;;;;;;;7.65;5.80;;;12.90;99.90;;;;;;5023180;28;20045;-71
2022/10/01 01:34:42;;;;;;;7.72;6.00;;;12.80;99.90;;;;;;5027971;28;20010;-71
2022/10/01 01:37:13;;;;;;;7.93;5.22;;;12.80;99.90;;;;;;5029295;28;20505;-71
2022/10/01 01:39:47;;;;;;;5.50;4.97;;;12.90;99.90;;;;;;5029055;28;20536;-70
2022/10/01 01:42:25;;;;;;;6.43;5.25;;;12.80;99.90;;;;;;5028852;28;20113;-69
2022/10/01 01:44:57;;;;;;;5.88;5.35;;;12.80;99.90;;;;;;5029668;28;20037;-69
2022/10/01 01:47:24;;;;;;;5.63;4.80;;;12.80;99.90;;;;;;5027557;28;20051;-69
2022/10/01 01:49:52;;;;;;;7.13;5.28;;;12.70;99.90;;;;;;5029223;28;20707;-69
2022/10/01 01:52:18;;;;;;;6.90;5.10;;;12.60;99.90;;;;;;5030759;28;20373;-69
2022/10/01 01:54:46;;;;;;;7.70;5.35;;;12.70;99.90;;;;;;5030081;28;20081;-69
2022/10/01 01:57:13;;;;;;;6.15;5.30;;;12.70;99.90;;;;;;5031249;28;20030;-69
2022/10/01 01:59:40;;;;;;;9.98;5.10;;;12.70;99.90;;;;;;5032852;28;20067;-69
2022/10/01 02:02:06;;;;;;;5.32;4.38;;;12.60;99.90;;;;;;5031926;28;20013;-69
2022/10/01 02:04:41;;;;;;;6.03;4.60;;;12.60;99.90;;;;;;5021751;28;20024;-69
2022/10/01 02:07:38;;;;;;;7.40;4.03;;;12.70;99.90;;;;;;5030840;28;20025;-70
2022/10/01 02:10:07;;;;;;;5.07;4.57;;;12.60;99.90;;;;;;5031208;28;20025;-69
2022/10/01 02:12:54;;;;;;;4.78;4.38;;;12.70;99.90;;;;;;5026026;28;20076;-69
2022/10/01 02:15:34;;;;;;;5.75;3.88;;;12.80;99.90;;;;;;5030121;28;20406;-69
2022/10/01 02:18:10;;;;;;;4.43;4.03;;;12.70;99.90;;;;;;5021931;28;20529;-69
2022/10/01 02:20:40;;;;;;;3.75;3.33;;;12.80;99.90;;;;;;5025181;28;20037;-69
2022/10/01 02:23:10;;;;;;;3.17;2.92;;;12.80;99.90;;;;;;5032184;28;20077;-69
2022/10/01 02:25:48;;;;;;;3.03;2.72;;;12.70;99.90;;;;;;5031199;28;20114;-69
2022/10/01 02:28:17;;;;;;;3.00;2.70;;;12.70;99.90;;;;;;5027338;28;20037;-69
2022/10/01 02:30:45;;;;;;;2.40;2.20;;;12.60;99.90;;;;;;5029050;28;20021;-69
2022/10/01 02:33:14;;;;;;;3.28;2.60;;;12.70;99.90;;;;;;5029439;28;20027;-69
2022/10/01 02:35:43;;;;;;;4.43;2.20;;;12.60;99.90;;;;;;5026737;28;20052;-69
2022/10/01 02:38:11;;;;;;;2.70;2.47;;;12.70;99.90;;;;;;5030526;28;20053;-69
2022/10/01 02:40:41;;;;;;;2.97;2.40;;;12.80;99.90;;;;;;5029144;28;20037;-69
2022/10/01 02:43:12;;;;;;;2.08;1.98;;;12.80;99.90;;;;;;5030197;28;20021;-69
2022/10/01 02:45:41;;;;;;;3.42;2.33;;;12.80;99.90;;;;;;5028022;28;20121;-69
2022/10/01 02:48:10;;;;;;;2.30;2.10;;;12.80;99.90;;;;;;5028526;28;20025;-70
2022/10/01 02:50:47;;;;;;;2.38;2.08;;;12.70;99.90;;;;;;5025091;28;20030;-70
2022/10/01 02:53:25;;;;;;;1.50;1.40;;;12.70;99.90;;;;;;5027477;28;20028;-69
2022/10/01 02:55:52;;;;;;;2.05;1.60;;;12.70;99.90;;;;;;5024061;28;20037;-71
2022/10/01 02:58:18;;;;;;;1.60;1.50;;;12.70;99.90;;;;;;5029192;28;20471;-70
2022/10/01 03:00:44;;;;;;;1.67;1.08;;;12.70;99.90;;;;;;5024540;28;20029;-70
2022/10/01 03:03:10;;;;;;;1.50;1.40;;;12.70;99.90;;;;;;5026773;28;20028;-70
2022/10/01 03:05:35;;;;;;;1.88;1.50;;;12.70;99.90;;;;;;5026660;28;20028;-71
2022/10/01 03:08:01;;;;;;;1.23;1.13;;;12.70;99.90;;;;;;5027287;28;20030;-71
2022/10/01 03:10:27;;;;;;;2.20;1.20;;;12.80;99.90;;;;;;5028011;28;20017;-70
2022/10/01 03:12:52;;;;;;;1.52;1.17;;;12.80;99.90;;;;;;5030242;28;20030;-70
2022/10/01 03:15:19;;;;;;;1.02;1.02;;;12.90;99.90;;;;;;5026272;28;20041;-71
2022/10/01 03:17:45;;;;;;;1.30;1.05;;;12.90;99.90;;;;;;5031984;28;20060;-71
2022/10/01 03:20:11;;;;;;;1.13;0.88;;;12.90;99.90;;;;;;5030734;28;20471;-71
2022/10/01 03:22:37;;;;;;;1.60;0.88;;;12.90;99.90;;;;;;5028804;28;20445;-71
2022/10/01 03:25:03;;;;;;;2.30;0.70;;;12.80;99.90;;;;;;5030982;28;20025;-70
2022/10/01 03:27:29;;;;;;;1.48;0.90;;;12.90;99.90;;;;;;5028037;28;20021;-71
2022/10/01 03:29:55;;;;;;;1.95;0.90;;;13.00;99.90;;;;;;5027471;28;20036;-71
2022/10/01 03:32:21;;;;;;;1.10;0.80;;;13.00;99.90;;;;;;5024481;28;20026;-71
2022/10/01 03:34:46;;;;;;;0.82;0.60;;;13.10;99.90;;;;;;5022613;28;20104;-71
2022/10/01 03:37:12;;;;;;;1.25;0.60;;;13.00;99.90;;;;;;5033113;28;20367;-71
2022/10/01 03:39:38;;;;;;;0.65;0.50;;;13.10;99.90;;;;;;5031818;28;20069;-70
2022/10/01 03:42:04;;;;;;;1.95;0.60;;;13.20;99.90;;;;;;5026539;28;20044;-71
2022/10/01 03:44:30;;;;;;;0.63;0.60;;;13.10;99.90;;;;;;5023737;28;20121;-71
2022/10/01 03:46:57;;;;;;;1.20;0.60;;;13.10;99.90;;;;;;5021676;28;20026;-71
2022/10/01 03:49:22;;;;;;;0.60;0.60;;;13.20;99.90;;;;;;5032172;28;20030;-71
2022/10/01 03:51:48;;;;;;;0.65;0.50;;;13.20;99.90;;;;;;5025998;28;20067;-71
2022/10/01 03:54:14;;;;;;;0.40;0.40;;;13.20;99.90;;;;;;5030540;28;20033;-71
2022/10/01 03:56:41;;;;;;;2.05;0.77;;;13.20;99.90;;;;;;5020528;28;20033;-70
2022/10/01 03:59:10;;;;;;;1.30;0.60;;;13.20;99.90;;;;;;5024326;28;20482;-71
2022/10/01 04:01:37;;;;;;;2.88;0.57;;;13.30;99.90;;;;;;5028896;28;20030;-70
2022/10/01 04:04:03;;;;;;;0.90;0.43;;;13.20;99.90;;;;;;5031127;28;20470;-70
2022/10/01 04:06:29;;;;;;;0.50;0.50;;;13.20;99.90;;;;;;5033856;28;20021;-71
2022/10/01 04:08:55;;;;;;;0.50;0.50;;;13.20;99.90;;;;;;5021413;28;20086;-70
2022/10/01 04:11:21;;;;;;;0.68;0.32;;;13.30;99.90;;;;;;5031962;28;20025;-71
2022/10/01 04:13:46;;;;;;;1.83;0.45;;;13.30;99.90;;;;;;5029610;28;20476;-71
2022/10/01 04:16:12;;;;;;;0.40;0.40;;;13.20;99.90;;;;;;5026017;28;20382;-71
2022/10/01 04:18:38;;;;;;;0.75;0.45;;;13.30;99.90;;;;;;5028492;28;20440;-71
2022/10/01 04:21:04;;;;;;;2.45;0.40;;;13.40;99.90;;;;;;5029577;28;20033;-71
2022/10/01 04:23:29;;;;;;;0.40;0.40;;;13.40;99.90;;;;;;5025504;28;20020;-71
2022/10/01 04:25:59;;;;;;;0.90;0.52;;;13.30;99.90;;;;;;5032618;28;20056;-71
2022/10/01 04:28:25;;;;;;;0.57;0.45;;;13.40;99.90;;;;;;5032561;28;20013;-71
2022/10/01 04:31:23;;;;;;;0.35;0.35;;;13.30;99.90;;;;;;5022234;28;20497;-71
2022/10/01 04:33:36;;;;;;;0.57;0.40;;;13.30;99.90;;;;;;5023935;28;20033;-71
2022/10/01 04:36:02;;;;;;;0.70;0.50;;;13.30;99.90;;;;;;5027615;28;20104;-70
2022/10/01 04:38:28;;;;;;;0.50;0.50;;;13.30;99.90;;;;;;5027259;28;20040;-70
2022/10/01 04:40:53;;;;;;;1.70;0.60;;;13.30;99.90;;;;;;5029319;28;20026;-70
2022/10/01 04:43:19;;;;;;;0.82;0.50;;;13.30;99.90;;;;;;5023420;28;20022;-70
2022/10/01 04:45:45;;;;;;;0.50;0.50;;;13.40;99.90;;;;;;5021729;28;20114;-70
2022/10/01 04:48:10;;;;;;;1.85;0.70;;;13.40;99.90;;;;;;5028055;28;20071;-70
2022/10/01 04:50:36;;;;;;;0.88;0.88;;;13.40;99.90;;;;;;5031118;28;20136;-70
2022/10/01 04:53:02;;;;;;;1.77;0.60;;;13.40;99.90;;;;;;5021881;28;20492;-70
2022/10/01 04:55:27;;;;;;;0.90;0.70;;;13.40;99.90;;;;;;5031761;28;20481;-70
2022/10/01 04:57:53;;;;;;;0.80;0.80;;;13.40;99.90;;;;;;5027504;28;20033;-70
2022/10/01 05:00:21;;;;;;;0.70;0.70;;;13.50;99.90;;;;;;5032534;28;20276;-70
2022/10/01 05:02:48;;;;;;;0.80;0.80;;;13.50;99.90;;;;;;5017394;28;20014;-71
2022/10/01 05:05:16;;;;;;;0.90;0.80;;;13.60;99.90;;;;;;5029676;28;20041;-71
2022/10/01 05:07:41;;;;;;;1.00;0.90;;;13.70;99.90;;;;;;5029466;28;20029;-71
2022/10/01 05:10:10;;;;;;;1.27;1.00;;;13.70;99.90;;;;;;5026139;28;20076;-71
2022/10/01 05:12:36;;;;;;;0.95;0.82;;;13.70;99.90;;;;;;5026421;28;20029;-71
2022/10/01 05:15:02;;;;;;;2.83;0.90;;;13.70;99.90;;;;;;5025378;28;20026;-71
2022/10/01 05:17:31;;;;;;;0.80;0.80;;;13.70;99.90;;;;;;5032691;28;20534;-71
2022/10/01 05:19:57;;;;;;;1.02;0.93;;;13.80;99.90;;;;;;5025165;28;20295;-71
2022/10/01 05:22:23;;;;;;;0.93;0.90;;;13.70;99.90;;;;;;5041589;28;20033;-72
2022/10/01 05:24:48;;;;;;;2.65;0.73;;;13.80;99.90;;;;;;5024977;28;20041;-71
2022/10/01 05:27:14;;;;;;;1.63;1.00;;;13.90;99.90;;;;;;5024601;28;20053;-71
2022/10/01 05:29:40;;;;;;;5.38;1.45;;;13.90;99.90;;;;;;5028640;28;20478;-71
2022/10/01 05:32:08;;;;;;;1.10;1.00;;;13.80;99.90;;;;;;5030662;28;20026;-72
2022/10/01 05:34:34;;;;;;;3.30;1.20;;;13.80;99.90;;;;;;5023145;28;20068;-71
2022/10/01 05:37:01;;;;;;;1.30;1.20;;;13.80;99.90;;;;;;5027833;28;20030;-71
2022/10/01 05:39:27;;;;;;;1.23;1.00;;;13.80;99.90;;;;;;5026266;28;20034;-72
2022/10/01 05:41:54;;;;;;;1.83;1.23;;;13.80;99.90;;;;;;5030372;28;20056;-72
2022/10/01 05:44:23;;;;;;;1.13;1.08;;;13.80;99.90;;;;;;5026481;28;20065;-71
2022/10/01 05:46:49;;;;;;;1.00;0.90;;;13.80;99.90;;;;;;5027228;28;20014;-71
2022/10/01 05:49:16;;;;;;;2.25;1.25;;;13.90;99.90;;;;;;5028536;28;20084;-71
2022/10/01 05:51:42;;;;;;;0.90;0.90;;;13.90;99.90;;;;;;5026635;28;20024;-71
2022/10/01 05:54:09;;;;;;;0.80;0.80;;;13.90;99.90;;;;;;5028324;28;20037;-71
2022/10/01 05:56:35;;;;;;;0.77;0.77;;;13.90;99.90;;;;;;5029221;28;20049;-71
2022/10/01 05:59:01;;;;;;;1.63;1.33;;;14.00;99.90;;;;;;5016811;28;20040;-71
2022/10/01 06:01:27;;;;;;;1.67;1.58;;;14.00;99.90;;;;;;5020460;28;20105;-71
2022/10/01 06:03:53;;;;;;;2.20;1.30;;;14.10;99.90;;;;;;5020920;28;20433;-71
2022/10/01 06:06:24;;;;;;;3.25;1.50;;;14.10;99.90;;;;;;5030024;28;20017;-72
2022/10/01 06:08:49;;;;;;;3.67;1.65;;;14.10;99.90;;;;;;5020218;28;20033;-72
2022/10/01 06:11:15;;;;;;;1.90;1.80;;;14.10;99.90;;;;;;5028236;28;20029;-71
2022/10/01 06:13:43;;;;;;;3.75;2.00;;;14.20;99.90;;;;;;5020380;28;20021;-71
2022/10/01 06:16:13;;;;;;;3.40;1.83;;;14.20;99.90;;;;;;5023379;28;20036;-71
2022/10/01 06:18:39;;;;;;;4.43;1.83;;;14.30;99.90;;;;;;5024135;28;20429;-71
2022/10/01 06:21:05;;;;;;;4.70;2.03;;;14.30;99.90;;;;;;5022757;28;20463;-71
2022/10/01 06:23:31;;;;;;;3.55;2.50;;;14.30;99.90;;;;;;5029387;28;20056;-71
2022/10/01 06:25:59;;;;;;;3.55;1.98;;;14.30;99.90;;;;;;5029834;28;20079;-72
2022/10/01 06:28:25;;;;;;;4.90;2.03;;;14.40;99.90;;;;;;5030009;28;20070;-71
2022/10/01 06:30:50;;;;;;;2.83;1.98;;;14.40;99.90;;;;;;5027206;28;20063;-72
2022/10/01 06:33:17;;;;;;;4.10;2.63;;;14.50;99.90;;;;;;5036236;28;20052;-71
2022/10/01 06:35:48;;;;;;;2.00;1.90;;;14.50;99.90;;;;;;5023105;28;20110;-71
2022/10/01 06:38:15;;;;;;;3.88;2.40;;;14.50;99.90;;;;;;5023801;28;20046;-71
2022/10/01 06:40:41;;;;;;;4.75;3.10;;;14.60;99.90;;;;;;5033641;28;20057;-72
2022/10/01 06:43:08;;;;;;;5.78;3.25;;;14.60;99.90;;;;;;5031156;28;20017;-72
2022/10/01 06:45:39;;;;;;;4.50;3.17;;;14.50;99.90;;;;;;5033121;28;20389;-72
2022/10/01 06:48:05;;;;;;;4.03;3.63;;;14.60;99.90;;;;;;5028884;28;20034;-71
2022/10/01 06:50:32;;;;;;;8.43;4.10;;;14.60;99.90;;;;;;5025246;28;20037;-72
2022/10/01 06:53:00;;;;;;;5.82;4.25;;;14.60;99.90;;;;;;5021759;28;20119;-71
2022/10/01 06:55:31;;;;;;;6.25;4.75;;;14.70;99.90;;;;;;5021078;28;20486;-72
2022/10/01 06:58:03;;;;;;;7.00;4.97;;;14.70;99.90;;;;;;5027386;28;20398;-72
2022/10/01 07:00:31;;;;;;;8.18;5.75;;;14.70;99.90;;;;;;5026684;28;20037;-71
2022/10/01 07:02:57;;;;;;;7.40;4.88;;;14.70;99.90;;;;;;5029296;28;20094;-72
2022/10/01 07:05:23;;;;;;;6.90;5.15;;;14.80;99.90;;;;;;5031287;28;20482;-72
2022/10/01 07:07:49;;;;;;;11.93;6.05;;;14.80;99.90;;;;;;5027601;28;20501;-72
2022/10/01 07:10:18;;;;;;;9.02;4.90;;;14.80;99.90;;;;;;5031732;28;20037;-72
2022/10/01 07:12:45;;;;;;;8.35;5.63;;;14.90;99.90;;;;;;5026029;28;20021;-71
2022/10/01 07:15:10;;;;;;;8.70;5.28;;;14.80;99.90;;;;;;5024518;28;20033;-72
2022/10/01 07:17:43;;;;;;;11.32;6.38;;;14.90;99.90;;;;;;5026659;28;20029;-72
2022/10/01 07:20:09;;;;;;;6.85;5.82;;;14.90;99.90;;;;;;5022694;28;20044;-72
2022/10/01 07:22:35;;;;;;;12.02;6.82;;;15.00;99.90;;;;;;5028729;28;20022;-72
2022/10/01 07:25:01;;;;;;;7.20;6.00;;;15.10;99.90;;;;;;5025768;28;20464;-72
2022/10/01 07:27:27;;;;;;;8.73;5.80;;;15.20;99.90;;;;;;5023139;28;20021;-72
2022/10/01 07:29:52;;;;;;;6.43;5.90;;;15.30;99.90;;;;;;5027615;28;20036;-72
2022/10/01 07:32:18;;;;;;;11.15;6.95;;;15.30;99.90;;;;;;5025193;28;20083;-72
2022/10/01 07:34:43;;;;;;;9.73;6.50;;;15.30;99.90;;;;;;5027846;28;20541;-72
2022/10/01 07:37:09;;;;;;;8.38;5.75;;;15.30;99.90;;;;;;5022042;28;20030;-72
2022/10/01 07:39:36;;;;;;;11.90;7.20;;;15.30;99.90;;;;;;5028769;28;20025;-72
2022/10/01 07:42:02;;;;;;;12.98;6.05;;;15.30;99.90;;;;;;5024193;28;20061;-72
2022/10/01 07:44:28;;;;;;;7.93;6.40;;;15.40;99.90;;;;;;5025964;28;20084;-72
2022/10/01 07:46:55;;;;;;;10.13;7.00;;;15.30;99.90;;;;;;5027187;28;20482;-72
2022/10/01 07:49:23;;;;;;;11.07;6.55;;;15.30;99.90;;;;;;5028479;28;20040;-73
2022/10/01 07:51:50;;;;;;;11.00;7.28;;;15.40;99.90;;;;;;5023196;28;20100;-72
2022/10/01 07:54:15;;;;;;;8.10;6.38;;;15.40;99.90;;;;;;5025714;28;20061;-72
2022/10/01 07:56:41;;;;;;;10.85;6.32;;;15.40;99.90;;;;;;5031958;28;20048;-72
2022/10/01 07:59:09;;;;;;;11.95;7.25;;;15.40;99.90;;;;;;5020090;28;20028;-72
2022/10/01 08:01:35;;;;;;;12.63;6.85;;;15.40;99.90;;;;;;5027695;28;20049;-72
2022/10/01 08:05:16;;;;;;;11.02;7.60;;;15.40;99.90;;;;;;5024530;28;20483;-72
2022/10/01 08:06:47;;;;;;;9.65;5.95;;;15.40;99.90;;;;;;5022850;28;20068;-72
2022/10/01 08:09:14;;;;;;;8.63;5.95;;;15.40;99.90;;;;;;5027237;28;20114;-71
2022/10/01 08:11:44;;;;;;;9.43;5.70;;;15.50;99.90;;;;;;5029759;28;20409;-72
2022/10/01 08:14:10;;;;;;;9.05;5.65;;;15.50;99.90;;;;;;5028038;28;20082;-73
2022/10/01 08:16:38;;;;;;;10.50;6.13;;;15.40;99.90;;;;;;5024387;28;20112;-71
2022/10/01 08:19:05;;;;;;;8.48;4.25;;;15.50;99.90;;;;;;5030116;28;20396;-71
2022/10/01 08:21:34;;;;;;;5.72;4.43;;;15.50;99.90;;;;;;5024108;28;20025;-71
2022/10/01 08:24:00;;;;;;;3.72;3.33;;;15.40;99.90;;;;;;5025775;28;20028;-69
2022/10/01 08:26:26;;;;;;;6.50;4.20;;;15.50;99.90;;;;;;5027998;28;20471;-70
2022/10/01 08:28:51;;;;;;;6.85;3.35;;;15.50;99.90;;;;;;5020153;28;20105;-70
2022/10/01 08:31:17;;;;;;;4.57;4.18;;;15.50;99.90;;;;;;5021570;28;20029;-71
2022/10/01 08:33:43;;;;;;;4.15;3.75;;;15.50;99.90;;;;;;5027283;28;20466;-70
2022/10/01 08:36:08;;;;;;;5.18;2.92;;;15.50;99.90;;;;;;5027506;28;20037;-70
2022/10/01 08:38:35;;;;;;;5.30;2.60;;;15.60;99.90;;;;;;5029947;28;20022;-71
2022/10/01 08:41:22;;;;;;;4.40;2.03;;;15.60;99.90;;;;;;5024695;28;20087;-71
2022/10/01 08:43:50;;;;;;;3.45;2.00;;;15.60;99.90;;;;;;5029331;28;20072;-71
2022/10/01 08:46:19;;;;;;;5.43;2.17;;;15.70;99.90;;;;;;5021646;28;20124;-71
2022/10/01 08:48:57;;;;;;;4.57;2.40;;;15.70;99.90;;;;;;5021183;28;20026;-71
2022/10/01 08:51:26;;;;;;;3.35;2.22;;;15.60;99.90;;;;;;5022965;28;20037;-72
2022/10/01 08:54:03;;;;;;;5.63;2.75;;;15.70;99.90;;;;;;5020841;28;20112;-72
2022/10/01 08:56:39;;;;;;;4.25;3.05;;;15.70;99.90;;;;;;5021176;28;20382;-72
2022/10/01 08:59:32;;;;;;;4.70;2.95;;;15.80;99.90;;;;;;5030309;28;20037;-72
2022/10/01 09:01:58;;;;;;;5.45;3.30;;;15.80;99.90;;;;;;5027754;28;20441;-72
2022/10/01 09:04:24;;;;;;;5.88;4.13;;;15.90;99.90;;;;;;5022837;28;20056;-72
2022/10/01 09:07:18;;;;;;;8.30;4.80;;;15.90;99.90;;;;;;5016475;28;21790;-72
2022/10/01 09:09:55;;;;;;;6.40;4.38;;;15.90;99.90;;;;;;5011998;28;20017;-72
2022/10/01 09:12:38;;;;;;;9.35;5.80;;;16.00;99.90;;;;;;5029828;28;20031;-72
2022/10/01 09:15:30;;;;;;;13.20;6.47;;;16.10;99.90;;;;;;5028316;28;20036;-72
2022/10/01 09:18:20;;;;;;;10.82;6.40;;;16.20;99.90;;;;;;5022904;28;20130;-72
2022/10/01 09:20:57;;;;;;;11.43;7.20;;;16.30;99.90;;;;;;5023774;28;20375;-72
2022/10/01 09:23:33;;;;;;;12.52;8.13;;;16.50;99.90;;;;;;5027422;28;20425;-72
2022/10/01 09:25:58;;;;;;;15.35;8.68;;;16.50;99.90;;;;;;5028018;28;20125;-72
2022/10/01 09:28:34;;;;;;;14.88;7.70;;;16.70;99.90;;;;;;5029840;28;20428;-70
2022/10/01 09:31:11;;;;;;;12.18;7.93;;;16.80;99.90;;;;;;5018390;28;20030;-70
2022/10/01 09:33:40;;;;;;;17.88;10.18;;;16.90;99.90;;;;;;5024231;28;20037;-70
2022/10/01 09:36:06;;;;;;;14.80;9.43;;;17.00;99.90;;;;;;5027441;28;20033;-70
2022/10/01 09:38:39;;;;;;;17.73;8.13;;;17.10;99.90;;;;;;5024002;28;20033;-70
2022/10/01 09:41:07;;;;;;;17.17;7.57;;;17.30;99.90;;;;;;5033615;28;20072;-70
2022/10/01 09:43:36;;;;;;;14.10;6.68;;;17.50;99.90;;;;;;5033160;28;20033;-69
2022/10/01 09:46:11;;;;;;;20.77;7.53;;;17.40;99.90;;;;;;5018979;28;20117;-70
2022/10/01 09:48:48;;;;;;;17.40;7.65;;;17.50;99.90;;;;;;5026944;28;20024;-70
2022/10/01 09:51:34;;;;;;;19.77;7.47;;;17.30;99.90;;;;;;5023284;28;20108;-70
2022/10/01 09:54:15;;;;;;;14.77;6.47;;;17.10;99.90;;;;;;5027009;28;20022;-70
2022/10/01 09:56:57;;;;;;;13.80;5.63;;;17.10;99.90;;;;;;5030841;28;20032;-69
2022/10/01 09:59:53;;;;;;;14.02;5.70;;;17.00;99.90;;;;;;5028809;28;20045;-69
2022/10/01 10:02:30;;;;;;;13.68;5.10;;;16.90;99.90;;;;;;5029570;28;20040;-69
2022/10/01 10:05:04;;;;;;;15.07;5.35;;;17.00;99.90;;;;;;5031668;28;20024;-69
2022/10/01 10:07:33;;;;;;;9.98;5.65;;;17.10;99.90;;;;;;5029969;28;20022;-69
2022/10/01 10:10:40;;;;;;;19.10;5.95;;;17.30;99.90;;;;;;5029644;28;20018;-70
2022/10/01 10:13:09;;;;;;;13.90;4.43;;;17.60;99.90;;;;;;5034021;28;20045;-70
2022/10/01 10:15:42;;;;;;;13.07;5.10;;;17.70;99.90;;;;;;5024205;28;20145;-70
2022/10/01 10:18:15;;;;;;;;;;;17.80;99.90;;;;;;5025984;28;20545;-70
2022/10/01 10:20:43;;;;;;;17.92;4.70;;;17.90;99.90;;;;;;5029364;28;20364;-70
2022/10/01 10:23:20;;;;;;;16.90;5.65;;;18.00;99.90;;;;;;5031826;28;20358;-70
2022/10/01 10:25:59;;;;;;;18.52;5.40;;;18.20;99.90;;;;;;5032893;28;20025;-70
2022/10/01 10:28:26;;;;;;;15.43;3.88;;;18.30;99.90;;;;;;5032945;28;20021;-70
2022/10/01 10:30:54;;;;;;;13.65;4.40;;;18.30;99.90;;;;;;5027920;28;20029;-70
2022/10/01 10:33:22;;;;;;;16.42;4.13;;;18.30;99.90;;;;;;5034134;28;20025;-70
2022/10/01 10:36:05;;;;;;;14.30;3.50;;;18.30;99.90;;;;;;5030126;28;20080;-70
2022/10/01 10:38:33;;;;;;;16.88;5.10;;;18.40;99.90;;;;;;5033980;28;20025;-70
2022/10/01 10:41:00;;;;;;;12.57;4.70;;;18.60;99.90;;;;;;5023343;28;20044;-70
2022/10/01 10:43:33;;;;;;;8.13;3.53;;;18.80;99.90;;;;;;5028847;28;20026;-70
2022/10/01 10:46:00;;;;;;;15.80;4.25;;;18.80;99.90;;;;;;5032708;28;20407;-70
2022/10/01 10:48:44;;;;;;;14.18;4.40;;;18.90;99.90;;;;;;5029562;28;20508;-71
2022/10/01 10:51:09;;;;;;;11.40;3.83;;;19.00;99.90;;;;;;5027109;28;20029;-71
2022/10/01 10:53:44;;;;;;;15.25;4.45;;;19.00;99.90;;;;;;5026977;28;20038;-70
2022/10/01 10:56:21;;;;;;;14.75;3.53;;;19.10;99.90;;;;;;5032818;28;20109;-70
2022/10/01 10:58:48;;;;;;;15.50;3.60;;;19.20;99.90;;;;;;5022661;28;20057;-71
2022/10/01 11:01:18;;;;;;;16.75;4.85;;;19.30;99.90;;;;;;5030258;28;20053;-71
2022/10/01 11:03:47;;;;;;;14.82;3.63;;;19.40;99.90;;;;;;5019949;28;20044;-71
2022/10/01 11:06:15;;;;;;;15.35;3.85;;;19.40;99.90;;;;;;5027603;28;20026;-70
2022/10/01 11:08:42;;;;;;;15.40;3.80;;;19.40;99.90;;;;;;5034421;28;20045;-71
2022/10/01 11:11:45;;;;;;;18.23;3.78;;;19.50;99.90;;;;;;5028951;28;20104;-71
2022/10/01 11:14:27;;;;;;;12.25;4.03;;;19.50;99.90;;;;;;5022950;28;20034;-71
2022/10/01 11:17:17;;;;;;;19.13;3.80;;;19.40;99.90;;;;;;5020219;28;20034;-71
2022/10/01 11:20:21;;;;;;;10.20;3.38;;;19.30;99.90;;;;;;5032993;28;20135;-71
2022/10/01 11:23:19;;;;;;;10.20;2.47;;;19.20;99.90;;;;;;5024230;28;20036;-71
2022/10/01 11:26:21;;;;;;;14.18;3.08;;;19.00;99.90;;;;;;5023322;28;20422;-71
2022/10/01 11:29:01;;;;;;;9.63;2.28;;;19.00;99.90;;;;;;5032428;28;20041;-70
2022/10/01 11:31:39;;;;;;;13.32;2.60;;;19.00;99.90;;;;;;5039155;28;20017;-72
2022/10/01 11:34:18;;;;;;;12.75;2.50;;;19.10;99.90;;;;;;5021898;28;20038;-72
2022/10/01 11:36:49;;;;;;;11.82;3.20;;;19.20;99.90;;;;;;5024736;28;20071;-72
2022/10/01 11:39:18;;;;;;;10.00;2.70;;;19.30;99.90;;;;;;5023725;28;20125;-71
2022/10/01 11:42:06;;;;;;;8.07;2.15;;;19.10;99.90;;;;;;5030653;28;20024;-72
2022/10/01 11:44:39;;;;;;;8.35;2.40;;;18.90;99.90;;;;;;5028168;28;20038;-71
2022/10/01 11:47:24;;;;;;;10.82;2.40;;;18.70;99.90;;;;;;5033092;28;20544;-71
2022/10/01 11:50:15;;;;;;;16.00;3.00;;;18.70;99.90;;;;;;5036833;28;20032;-72
2022/10/01 11:52:58;;;;;;;13.73;3.45;;;18.70;99.90;;;;;;5031947;28;20030;-71
2022/10/01 12:01:14;;;;;;;15.10;3.03;;;18.80;99.90;;;;;;5017051;28;20136;-71
2022/10/01 12:04:03;;;;;;;9.55;2.40;;;18.90;99.90;;;;;;5029418;28;20022;-71
2022/10/01 12:06:34;;;;;;;11.57;2.70;;;18.80;99.90;;;;;;5021144;28;20030;-71
2022/10/01 12:09:18;;;;;;;13.63;2.85;;;19.00;99.90;;;;;;5027875;28;20017;-71
2022/10/01 12:11:57;;;;;;;10.45;2.33;;;19.10;99.90;;;;;;5025036;28;20125;-71
2022/10/01 12:15:09;;;;;;;13.00;3.17;;;19.00;99.90;;;;;;5029765;28;20137;-71
2022/10/01 12:17:53;;;;;;;12.63;2.95;;;19.00;99.90;;;;;;5020209;28;20034;-71
2022/10/01 12:20:40;;;;;;;12.63;2.40;;;18.90;99.90;;;;;;5024777;28;20099;-71
2022/10/01 12:23:17;;;;;;;16.15;3.33;;;18.90;99.90;;;;;;5027022;28;20049;-71
2022/10/01 12:26:17;;;;;;;11.05;2.80;;;19.00;99.90;;;;;;5026471;28;20022;-71
2022/10/01 12:29:06;;;;;;;12.60;3.05;;;19.10;99.90;;;;;;5019231;28;20025;-71
2022/10/01 12:32:13;;;;;;;11.82;3.05;;;19.10;99.90;;;;;;5025325;28;20529;-72
2022/10/01 12:34:41;;;;;;;14.40;2.78;;;19.20;99.90;;;;;;5027663;28;20482;-71
2022/10/01 12:37:30;;;;;;;12.88;3.05;;;19.10;99.90;;;;;;5028472;28;20037;-71
2022/10/01 12:40:25;;;;;;;10.73;2.60;;;19.20;99.90;;;;;;5029119;28;20037;-71
2022/10/01 12:42:55;;;;;;;13.23;2.92;;;19.30;99.90;;;;;;5028583;28;20092;-70
2022/10/01 12:45:28;;;;;;;10.52;3.00;;;19.30;99.90;;;;;;5016377;28;20036;-72
2022/10/01 12:47:54;;;;;;;10.93;2.60;;;19.30;99.90;;;;;;5029892;28;20060;-71
2022/10/01 12:50:37;;;;;;;10.63;2.10;;;19.30;99.90;;;;;;5023894;28;20057;-71
2022/10/01 12:53:24;;;;;;;7.72;2.55;;;19.30;99.90;;;;;;5031368;28;20108;-71
2022/10/01 12:56:06;;;;;;;10.02;2.83;;;19.20;99.90;;;;;;5021913;28;20393;-71
2022/10/01 12:59:05;;;;;;;13.93;2.80;;;19.30;99.90;;;;;;5028776;28;20493;-72
2022/10/01 13:01:55;;;;;;;12.77;2.80;;;19.10;99.90;;;;;;5025967;28;20029;-70
2022/10/01 13:04:55;;;;;;;13.20;2.33;;;18.90;99.90;;;;;;5019489;28;20026;-71
2022/10/01 13:07:39;;;;;;;12.32;2.70;;;19.00;99.90;;;;;;5027236;28;20025;-71
2022/10/01 13:10:18;;;;;;;11.57;2.30;;;19.20;99.90;;;;;;5031280;28;20016;-71
2022/10/01 13:12:55;;;;;;;13.02;2.58;;;19.20;99.90;;;;;;5028526;28;20419;-71